createdAt,value
2018-09-23T00:00:52.653Z,12.90
2018-09-23T00:03:21.518Z,12.88
2018-09-23T00:05:51.804Z,12.79
2018-09-23T00:08:20.642Z,12.83
2018-09-23T00:10:49.498Z,12.87
2018-09-23T00:13:18.363Z,12.84
2018-09-23T00:15:47.284Z,12.86
2018-09-23T00:18:16.176Z,12.84
2018-09-23T00:20:44.932Z,12.78
2018-09-23T00:23:13.770Z,12.80
2018-09-23T00:25:42.610Z,12.78
2018-09-23T00:28:11.481Z,12.79
2018-09-23T00:30:41.200Z,12.85
2018-09-23T00:33:10.222Z,12.86
2018-09-23T00:35:39.036Z,12.93
2018-09-23T00:38:08.010Z,12.90
2018-09-23T00:40:36.930Z,12.95
2018-09-23T00:43:06.179Z,12.94
2018-09-23T00:45:34.999Z,13.01
2018-09-23T00:48:03.842Z,13.03
2018-09-23T00:50:32.665Z,13.05
2018-09-23T00:53:01.551Z,13.08
2018-09-23T00:55:30.361Z,13.04
2018-09-23T00:57:59.186Z,13.05
2018-09-23T01:00:28.075Z,13.08
2018-09-23T01:02:58.630Z,13.12
2018-09-23T01:05:27.493Z,13.14
2018-09-23T01:07:56.284Z,13.01
2018-09-23T01:10:25.220Z,13.05
2018-09-23T01:12:53.990Z,13.04
2018-09-23T01:15:22.942Z,13.10
2018-09-23T01:17:51.775Z,13.10
2018-09-23T01:20:20.739Z,13.12
2018-09-23T01:22:50.282Z,13.03
2018-09-23T01:25:19.334Z,13.05
2018-09-23T01:27:48.104Z,13.08
2018-09-23T01:30:16.995Z,13.05
2018-09-23T01:32:46.161Z,13.05
2018-09-23T01:35:15.095Z,13.07
2018-09-23T01:37:44.042Z,13.08
2018-09-23T01:40:12.816Z,13.05
2018-09-23T01:42:41.719Z,13.11
2018-09-23T01:45:11.056Z,13.13
2018-09-23T01:47:39.860Z,13.14
2018-09-23T01:50:09.044Z,13.11
2018-09-23T01:52:38.040Z,13.17
2018-09-23T01:55:06.870Z,13.10
2018-09-23T01:57:35.795Z,13.08
2018-09-23T02:00:04.920Z,13.02
2018-09-23T02:02:34.252Z,13.10
2018-09-23T02:05:03.082Z,13.10
2018-09-23T02:07:31.852Z,13.10
2018-09-23T02:10:00.706Z,13.13
2018-09-23T02:12:29.480Z,13.14
2018-09-23T02:15:01.497Z,13.13
2018-09-23T02:17:30.329Z,13.16
2018-09-23T02:19:59.606Z,13.17
2018-09-23T02:22:28.724Z,13.16
2018-09-23T02:24:57.583Z,13.20
2018-09-23T02:27:26.444Z,13.18
2018-09-23T02:29:56.139Z,13.19
2018-09-23T02:32:24.920Z,13.21
2018-09-23T02:34:54.128Z,13.20
2018-09-23T02:37:22.902Z,13.20
2018-09-23T02:39:51.851Z,13.21
2018-09-23T02:42:20.635Z,13.16
2018-09-23T02:44:49.427Z,13.17
2018-09-23T02:47:18.279Z,13.15
2018-09-23T02:49:47.107Z,13.14
2018-09-23T02:52:16.066Z,13.19
2018-09-23T02:54:44.994Z,13.15
2018-09-23T02:57:14.014Z,13.04
2018-09-23T02:59:42.805Z,13.11
2018-09-23T03:02:11.675Z,13.15
2018-09-23T03:04:40.582Z,13.09
2018-09-23T03:07:09.462Z,13.11
2018-09-23T03:09:38.348Z,13.11
2018-09-23T03:12:07.294Z,13.07
2018-09-23T03:14:36.131Z,13.15
2018-09-23T03:17:05.009Z,13.14
2018-09-23T03:19:33.903Z,13.15
2018-09-23T03:22:02.716Z,13.17
2018-09-23T03:24:31.614Z,13.21
2018-09-23T03:27:00.391Z,13.20
2018-09-23T03:29:29.271Z,13.26
2018-09-23T03:31:58.088Z,13.25
2018-09-23T03:34:27.739Z,13.29
2018-09-23T03:36:57.190Z,13.22
2018-09-23T03:39:26.044Z,13.22
2018-09-23T03:41:54.826Z,13.23
2018-09-23T03:44:23.663Z,13.26
2018-09-23T03:46:52.528Z,13.27
2018-09-23T03:49:21.368Z,13.29
2018-09-23T03:51:50.217Z,13.23
2018-09-23T03:54:19.161Z,13.21
2018-09-23T03:56:48.054Z,13.16
2018-09-23T03:59:16.973Z,13.19
2018-09-23T04:01:45.783Z,13.09
2018-09-23T04:04:14.510Z,13.08
2018-09-23T04:06:43.427Z,13.11
2018-09-23T04:09:12.219Z,13.11
2018-09-23T04:11:41.226Z,13.19
2018-09-23T04:14:10.060Z,13.19
2018-09-23T04:16:38.903Z,13.17
2018-09-23T04:19:07.759Z,13.16
2018-09-23T04:21:36.582Z,13.18
2018-09-23T04:24:05.339Z,13.19
2018-09-23T04:26:34.224Z,13.23
2018-09-23T04:29:02.999Z,13.28
2018-09-23T04:31:31.875Z,13.33
2018-09-23T04:34:00.663Z,13.37
2018-09-23T04:36:29.539Z,13.45
2018-09-23T04:38:58.343Z,13.43
2018-09-23T04:41:27.146Z,13.48
2018-09-23T04:43:55.998Z,13.40
2018-09-23T04:46:25.216Z,13.41
2018-09-23T04:48:54.094Z,13.35
2018-09-23T04:51:22.987Z,13.34
2018-09-23T04:53:53.236Z,13.27
2018-09-23T04:56:22.178Z,13.30
2018-09-23T04:58:51.108Z,13.29
2018-09-23T05:01:19.916Z,13.29
2018-09-23T05:03:48.790Z,13.26
2018-09-23T05:06:17.685Z,13.26
2018-09-23T05:08:47.107Z,13.31
2018-09-23T05:11:15.874Z,13.27
2018-09-23T05:13:45.281Z,13.26
2018-09-23T05:16:14.508Z,13.28
2018-09-23T05:18:47.127Z,13.28
2018-09-23T05:21:16.450Z,13.29
2018-09-23T05:23:45.548Z,13.30
2018-09-23T05:26:14.406Z,13.31
2018-09-23T05:28:43.228Z,13.32
2018-09-23T05:31:14.100Z,13.31
2018-09-23T05:33:43.267Z,13.29
2018-09-23T05:36:12.493Z,13.31
2018-09-23T05:38:41.510Z,13.28
2018-09-23T05:41:11.621Z,13.19
2018-09-23T05:43:40.503Z,13.25
2018-09-23T05:46:09.364Z,13.19
2018-09-23T05:48:38.258Z,13.25
2018-09-23T05:51:07.085Z,13.15
2018-09-23T05:53:36.001Z,13.21
2018-09-23T05:56:04.919Z,13.29
2018-09-23T05:58:33.730Z,13.23
2018-09-23T06:01:02.752Z,13.24
2018-09-23T06:03:31.696Z,13.15
2018-09-23T06:06:00.624Z,13.21
2018-09-23T06:08:29.384Z,13.10
2018-09-23T06:10:59.972Z,13.10
2018-09-23T06:13:29.257Z,13.15
2018-09-23T06:15:58.219Z,13.18
2018-09-23T06:18:27.727Z,13.20
2018-09-23T06:20:57.736Z,13.24
2018-09-23T06:23:27.151Z,13.21
2018-09-23T06:25:56.343Z,13.22
2018-09-23T06:28:25.159Z,13.17
2018-09-23T06:30:54.097Z,13.04
2018-09-23T06:33:23.170Z,13.07
2018-09-23T06:35:54.272Z,13.09
2018-09-23T06:38:23.241Z,13.13
2018-09-23T06:40:52.319Z,13.23
2018-09-23T06:43:21.259Z,13.24
2018-09-23T06:45:50.104Z,13.20
2018-09-23T06:48:22.924Z,13.20
2018-09-23T06:50:54.306Z,13.19
2018-09-23T06:53:23.147Z,13.31
2018-09-23T06:55:52.032Z,13.20
2018-09-23T06:58:21.329Z,13.29
2018-09-23T07:00:50.301Z,13.30
2018-09-23T07:03:19.165Z,13.27
2018-09-23T07:05:47.994Z,13.29
2018-09-23T07:08:17.005Z,13.37
2018-09-23T07:10:45.932Z,13.34
2018-09-23T07:13:14.957Z,13.31
2018-09-23T07:15:43.860Z,13.28
2018-09-23T07:18:12.750Z,13.42
2018-09-23T07:20:41.954Z,13.37
2018-09-23T07:23:10.951Z,13.19
2018-09-23T07:25:39.868Z,13.10
2018-09-23T07:28:16.322Z,13.12
2018-09-23T07:30:45.975Z,13.32
2018-09-23T07:33:15.452Z,13.22
2018-09-23T07:35:44.251Z,13.27
2018-09-23T07:38:13.187Z,13.30
2018-09-23T07:40:42.072Z,13.33
2018-09-23T07:43:11.039Z,13.35
2018-09-23T07:45:40.061Z,13.37
2018-09-23T07:48:09.167Z,13.43
2018-09-23T07:50:38.086Z,13.60
2018-09-23T07:53:07.319Z,13.45
2018-09-23T07:55:36.276Z,13.56
2018-09-23T07:58:06.045Z,13.34
2018-09-23T08:00:34.952Z,13.32
2018-09-23T08:03:03.764Z,13.24
2018-09-23T08:05:32.686Z,13.14
2018-09-23T08:08:01.752Z,13.03
2018-09-23T08:10:30.670Z,13.08
2018-09-23T08:12:59.717Z,12.97
2018-09-23T08:15:28.592Z,12.96
2018-09-23T08:17:57.524Z,13.05
2018-09-23T08:20:26.545Z,13.14
2018-09-23T08:22:55.372Z,13.25
2018-09-23T08:25:24.234Z,13.65
2018-09-23T08:27:53.309Z,13.57
2018-09-23T08:30:22.333Z,13.73
2018-09-23T08:32:51.342Z,13.93
2018-09-23T08:35:20.537Z,13.92
2018-09-23T08:37:49.493Z,13.83
2018-09-23T08:40:18.313Z,13.70
2018-09-23T08:42:47.295Z,13.69
2018-09-23T08:45:16.863Z,13.73
2018-09-23T08:47:45.969Z,13.78
2018-09-23T08:50:14.981Z,14.07
2018-09-23T08:52:43.884Z,14.21
2018-09-23T08:55:12.693Z,14.04
2018-09-23T08:57:41.690Z,14.02
2018-09-23T09:00:10.584Z,14.00
2018-09-23T09:02:39.646Z,14.38
2018-09-23T09:05:08.591Z,14.63
2018-09-23T09:07:37.503Z,14.47
2018-09-23T09:10:06.633Z,14.43
2018-09-23T09:12:35.576Z,14.33
2018-09-23T09:15:04.655Z,14.21
2018-09-23T09:17:33.594Z,14.16
2018-09-23T09:20:02.820Z,14.18
2018-09-23T09:22:31.746Z,14.40
2018-09-23T09:25:01.149Z,14.38
2018-09-23T09:27:30.138Z,14.28
2018-09-23T09:29:59.162Z,14.03
2018-09-23T09:32:28.005Z,13.93
2018-09-23T09:34:56.991Z,14.08
2018-09-23T09:37:25.799Z,14.02
2018-09-23T09:39:54.716Z,14.17
2018-09-23T09:42:23.754Z,14.16
2018-09-23T09:44:55.060Z,14.22
2018-09-23T09:47:24.098Z,14.25
2018-09-23T09:49:52.993Z,14.07
2018-09-23T09:52:21.977Z,14.09
2018-09-23T09:54:51.142Z,13.97
2018-09-23T09:57:20.296Z,14.17
2018-09-23T09:59:49.389Z,14.07
2018-09-23T10:02:22.068Z,14.16
2018-09-23T10:04:51.443Z,14.14
2018-09-23T10:07:20.446Z,14.05
2018-09-23T10:09:49.668Z,14.21
2018-09-23T10:12:18.943Z,14.16
2018-09-23T10:14:48.202Z,14.20
2018-09-23T10:17:17.981Z,14.25
2018-09-23T10:19:47.245Z,14.19
2018-09-23T10:22:16.215Z,14.31
2018-09-23T10:24:45.158Z,14.29
2018-09-23T10:27:14.842Z,14.50
2018-09-23T10:29:44.124Z,14.74
2018-09-23T10:32:13.362Z,14.74
2018-09-23T10:34:43.527Z,14.59
2018-09-23T10:37:12.743Z,14.55
2018-09-23T10:39:41.701Z,14.45
2018-09-23T10:42:12.548Z,14.46
2018-09-23T10:44:43.508Z,14.51
2018-09-23T10:47:12.558Z,14.54
2018-09-23T10:49:41.907Z,14.46
2018-09-23T10:52:11.353Z,14.28
2018-09-23T10:54:40.309Z,14.21
2018-09-23T10:57:09.356Z,14.06
2018-09-23T10:59:40.711Z,13.98
2018-09-23T11:02:10.689Z,13.89
2018-09-23T11:04:39.880Z,13.91
2018-09-23T11:07:09.163Z,13.96
2018-09-23T11:09:38.584Z,14.06
2018-09-23T11:12:07.629Z,14.07
2018-09-23T11:14:38.544Z,14.07
2018-09-23T11:17:16.961Z,14.06
2018-09-23T11:19:47.763Z,14.00
2018-09-23T11:22:17.039Z,13.93
2018-09-23T11:24:45.988Z,13.89
2018-09-23T11:27:15.043Z,13.88
2018-09-23T11:29:44.090Z,13.83
2018-09-23T11:32:14.028Z,13.87
2018-09-23T11:34:43.196Z,13.94
2018-09-23T11:37:14.437Z,14.02
2018-09-23T11:39:43.615Z,13.83
2018-09-23T11:42:12.640Z,13.84
2018-09-23T11:44:43.100Z,13.87
2018-09-23T11:47:18.206Z,13.84
2018-09-23T11:49:47.220Z,13.89
2018-09-23T11:52:16.367Z,14.06
2018-09-23T11:54:45.460Z,14.08
2018-09-23T11:57:14.384Z,14.10
2018-09-23T11:59:43.821Z,14.23
2018-09-23T12:02:12.964Z,14.35
2018-09-23T12:04:42.002Z,14.15
2018-09-23T12:07:10.908Z,14.11
2018-09-23T12:09:39.920Z,13.91
2018-09-23T12:12:10.832Z,13.84
2018-09-23T12:14:42.123Z,13.77
2018-09-23T12:17:10.909Z,13.77
2018-09-23T12:19:39.929Z,13.74
2018-09-23T12:22:08.894Z,13.76
2018-09-23T12:24:38.051Z,13.68
2018-09-23T12:27:07.002Z,13.67
2018-09-23T12:29:36.279Z,13.66
2018-09-23T12:32:05.749Z,13.71
2018-09-23T12:34:37.578Z,13.73
2018-09-23T12:37:12.112Z,13.72
2018-09-23T12:39:41.935Z,13.73
2018-09-23T12:42:10.853Z,13.83
2018-09-23T12:44:41.938Z,13.81
2018-09-23T12:47:16.861Z,13.87
2018-09-23T12:49:45.959Z,13.89
2018-09-23T12:52:15.070Z,13.83
2018-09-23T12:54:44.204Z,13.77
2018-09-23T12:57:21.648Z,13.69
2018-09-23T12:59:50.906Z,13.58
2018-09-23T13:02:20.138Z,13.61
2018-09-23T13:04:49.382Z,13.52
2018-09-23T13:07:19.242Z,13.53
2018-09-23T13:09:48.222Z,13.48
2018-09-23T13:12:17.464Z,13.43
2018-09-23T13:14:47.014Z,13.34
2018-09-23T13:17:16.065Z,13.35
2018-09-23T13:19:45.387Z,13.35
2018-09-23T13:22:14.539Z,13.32
2018-09-23T13:24:43.811Z,12.99
2018-09-23T13:27:12.894Z,13.07
2018-09-23T13:29:42.424Z,12.97
2018-09-23T13:32:11.484Z,12.97
2018-09-23T13:34:41.548Z,12.98
2018-09-23T13:37:12.220Z,12.92
2018-09-23T13:39:41.278Z,12.80
2018-09-23T13:42:10.516Z,12.83
2018-09-23T13:44:45.383Z,12.64
2018-09-23T13:47:16.394Z,12.61
2018-09-23T13:49:47.775Z,12.58
2018-09-23T13:52:21.140Z,12.47
2018-09-23T13:54:51.833Z,12.53
2018-09-23T13:57:22.775Z,12.50
2018-09-23T13:59:53.672Z,12.63
2018-09-23T14:02:24.324Z,12.62
2018-09-23T14:04:54.199Z,12.67
2018-09-23T14:07:24.852Z,12.52
2018-09-23T14:09:54.714Z,12.44
2018-09-23T14:12:32.073Z,12.35
2018-09-23T14:15:04.519Z,12.45
2018-09-23T14:17:34.144Z,12.32
2018-09-23T14:20:03.110Z,12.27
2018-09-23T14:22:32.108Z,12.38
2018-09-23T14:25:01.030Z,12.38
2018-09-23T14:27:30.062Z,12.34
2018-09-23T14:29:59.084Z,12.45
2018-09-23T14:32:28.877Z,12.41
2018-09-23T14:34:57.830Z,12.40
2018-09-23T14:37:27.321Z,12.32
2018-09-23T14:39:56.873Z,12.36
2018-09-23T14:42:26.386Z,12.42
2018-09-23T14:44:55.919Z,12.45
2018-09-23T14:47:25.261Z,12.31
2018-09-23T14:49:54.357Z,12.38
2018-09-23T14:52:23.348Z,12.42
2018-09-23T14:54:52.325Z,12.41
2018-09-23T14:57:21.343Z,12.27
2018-09-23T14:59:54.192Z,12.28
2018-09-23T15:02:19.353Z,12.23
2018-09-23T15:04:48.526Z,12.11
2018-09-23T15:07:36.378Z,12.19
2018-09-23T15:10:08.119Z,12.22
2018-09-23T15:12:37.704Z,12.13
2018-09-23T15:15:06.595Z,12.05
2018-09-23T15:17:36.116Z,12.10
2018-09-23T15:20:05.190Z,11.97
2018-09-23T15:22:34.351Z,11.91
2018-09-23T15:25:04.846Z,12.01
2018-09-23T15:27:34.740Z,11.95
2018-09-23T15:30:05.841Z,11.97
2018-09-23T15:32:34.959Z,11.78
2018-09-23T15:35:04.249Z,11.73
2018-09-23T15:37:33.225Z,11.68
2018-09-23T15:40:03.208Z,11.60
2018-09-23T15:42:32.121Z,11.57
2018-09-23T15:45:01.298Z,11.53
2018-09-23T15:47:30.532Z,11.48
2018-09-23T15:49:59.498Z,11.49
2018-09-23T15:52:28.588Z,11.47
2018-09-23T15:54:57.626Z,11.50
2018-09-23T15:57:26.876Z,11.49
2018-09-23T15:59:56.212Z,11.47
2018-09-23T16:02:26.185Z,11.44
2018-09-23T16:04:55.399Z,11.45
2018-09-23T16:07:24.652Z,11.44
2018-09-23T16:09:54.000Z,11.40
2018-09-23T16:12:22.884Z,11.45
2018-09-23T16:14:52.732Z,11.41
2018-09-23T16:17:22.218Z,11.45
2018-09-23T16:19:51.544Z,11.44
2018-09-23T16:22:20.608Z,11.42
2018-09-23T16:24:53.686Z,11.38
2018-09-23T16:27:24.682Z,11.36
2018-09-23T16:29:55.008Z,11.39
2018-09-23T16:32:24.181Z,11.36
2018-09-23T16:34:54.362Z,11.45
2018-09-23T16:37:23.948Z,11.37
2018-09-23T16:39:52.854Z,11.55
2018-09-23T16:42:22.306Z,11.58
2018-09-23T16:44:53.201Z,11.48
2018-09-23T16:47:22.691Z,11.50
2018-09-23T16:49:51.739Z,11.43
2018-09-23T16:52:20.681Z,11.38
2018-09-23T16:54:49.939Z,11.30
2018-09-23T16:57:18.907Z,11.32
2018-09-23T16:59:48.613Z,11.33
2018-09-23T17:02:17.743Z,11.32
2018-09-23T17:04:46.779Z,11.32
2018-09-23T17:07:16.528Z,11.29
2018-09-23T17:09:45.641Z,11.30
2018-09-23T17:12:14.948Z,11.30
2018-09-23T17:14:45.099Z,11.25
2018-09-23T17:17:14.988Z,11.25
2018-09-23T17:19:44.041Z,11.26
2018-09-23T17:22:14.331Z,11.26
2018-09-23T17:24:43.171Z,11.26
2018-09-23T17:27:12.762Z,11.24
2018-09-23T17:29:42.929Z,11.27
2018-09-23T17:32:11.958Z,11.21
2018-09-23T17:34:41.892Z,11.21
2018-09-23T17:41:36.713Z,11.11
2018-09-23T17:44:08.903Z,11.10
2018-09-23T17:46:37.888Z,11.05
2018-09-23T17:49:07.197Z,11.03
2018-09-23T17:51:36.279Z,10.95
2018-09-23T17:54:05.330Z,10.84
2018-09-23T17:56:34.011Z,10.72
2018-09-23T17:59:02.664Z,10.68
2018-09-23T18:01:31.196Z,10.67
2018-09-23T18:04:00.840Z,10.65
2018-09-23T18:06:29.608Z,10.52
2018-09-23T18:08:58.239Z,10.49
2018-09-23T18:11:26.737Z,10.38
2018-09-23T18:13:56.245Z,10.38
2018-09-23T18:16:25.149Z,10.15
2018-09-23T18:18:54.098Z,10.06
2018-09-23T18:21:22.858Z,9.99
2018-09-23T18:23:51.565Z,9.97
2018-09-23T18:26:22.110Z,9.79
2018-09-23T18:28:53.485Z,9.61
2018-09-23T18:31:23.016Z,9.49
2018-09-23T18:33:52.052Z,9.52
2018-09-23T18:36:22.137Z,9.54
2018-09-23T18:38:51.180Z,9.52
2018-09-23T18:41:20.634Z,9.55
2018-09-23T18:43:49.790Z,9.53
2018-09-23T18:46:18.776Z,9.56
2018-09-23T18:48:47.582Z,9.56
2018-09-23T18:51:16.611Z,9.55
2018-09-23T18:53:50.671Z,9.55
2018-09-23T18:56:19.899Z,9.53
2018-09-23T18:58:57.846Z,9.48
2018-09-23T19:01:30.869Z,9.48
2018-09-23T19:04:02.421Z,9.41
2018-09-23T19:06:34.958Z,9.36
2018-09-23T19:09:04.855Z,9.29
2018-09-23T19:11:35.159Z,9.24
2018-09-23T19:14:06.795Z,9.18
2018-09-23T19:16:36.551Z,9.16
2018-09-23T19:19:07.691Z,9.18
2018-09-23T19:21:36.659Z,9.16
2018-09-23T19:24:07.743Z,9.10
2018-09-23T19:26:38.309Z,9.05
2018-09-23T19:29:08.535Z,8.93
2018-09-23T19:31:40.342Z,8.86
2018-09-23T19:34:09.491Z,8.82
2018-09-23T19:36:39.825Z,8.80
2018-09-23T19:39:09.775Z,8.81
2018-09-23T19:41:45.882Z,8.80
2018-09-23T19:44:15.290Z,8.83
2018-09-23T19:46:45.490Z,8.74
2018-09-23T19:49:15.300Z,8.79
2018-09-23T19:51:49.682Z,8.75
2018-09-23T19:54:19.656Z,8.77
2018-09-23T19:56:51.518Z,8.80
2018-09-23T19:59:23.024Z,8.72
2018-09-23T20:01:52.021Z,8.74
2018-09-23T20:04:21.140Z,8.74
2018-09-23T20:06:50.039Z,8.71
2018-09-23T20:09:19.335Z,8.72
2018-09-23T20:11:49.770Z,8.69
2018-09-23T20:14:20.706Z,8.68
2018-09-23T20:17:16.903Z,8.67
2018-09-23T20:19:47.070Z,8.68
2018-09-23T20:22:17.808Z,8.68
2018-09-23T20:24:52.931Z,8.71
2018-09-23T20:27:23.628Z,8.70
2018-09-23T20:29:53.510Z,8.68
2018-09-23T20:32:22.719Z,8.63
2018-09-23T20:34:52.829Z,8.63
2018-09-23T20:37:29.048Z,8.62
2018-09-23T20:40:07.233Z,8.71
2018-09-23T20:42:36.448Z,8.67
2018-09-23T20:45:05.767Z,8.65
2018-09-23T20:47:35.350Z,8.64
2018-09-23T20:50:05.973Z,8.63
2018-09-23T20:52:35.440Z,8.61
2018-09-23T20:55:04.453Z,8.60
2018-09-23T20:57:34.903Z,8.60
2018-09-23T21:00:04.203Z,8.64
2018-09-23T21:02:33.335Z,8.63
2018-09-23T21:05:02.291Z,8.62
2018-09-23T21:07:31.284Z,8.67
2018-09-23T21:10:00.185Z,8.61
2018-09-23T21:12:29.440Z,8.59
2018-09-23T21:14:59.506Z,8.62
2018-09-23T21:17:28.515Z,8.64
2018-09-23T21:20:00.141Z,8.67
2018-09-23T21:22:29.227Z,8.68
2018-09-23T21:24:58.090Z,8.68
2018-09-23T21:27:28.160Z,8.70
2018-09-23T21:29:57.668Z,8.71
2018-09-23T21:32:30.563Z,8.74
2018-09-23T21:35:01.067Z,8.72
2018-09-23T21:37:30.201Z,8.80
2018-09-23T21:40:01.022Z,8.77
2018-09-23T21:42:31.537Z,8.79
2018-09-23T21:45:05.474Z,8.77
2018-09-23T21:47:34.743Z,8.84
2018-09-23T21:50:03.582Z,8.81
2018-09-23T21:52:33.303Z,8.80
2018-09-23T21:55:02.680Z,8.78
2018-09-23T21:57:42.665Z,8.77
2018-09-23T22:00:12.881Z,8.80
2018-09-23T22:02:41.858Z,8.81
2018-09-23T22:05:10.860Z,8.80
2018-09-23T22:07:39.670Z,8.85
2018-09-23T22:10:09.849Z,8.87
2018-09-23T22:12:39.488Z,8.92
2018-09-23T22:15:12.640Z,8.90
2018-09-23T22:17:41.563Z,8.89
2018-09-23T22:20:11.396Z,8.90
2018-09-23T22:22:40.336Z,8.94
2018-09-23T22:25:09.239Z,8.94
2018-09-23T22:27:38.253Z,8.91
2018-09-23T22:30:07.637Z,8.91
2018-09-23T22:32:37.707Z,8.94
2018-09-23T22:35:06.979Z,8.96
2018-09-23T22:37:36.128Z,8.95
2018-09-23T22:40:06.365Z,8.93
2018-09-23T22:42:35.492Z,9.01
2018-09-23T22:45:05.038Z,8.98
2018-09-23T22:47:33.995Z,9.09
2018-09-23T22:50:04.156Z,9.08
2018-09-23T22:52:32.991Z,9.13
2018-09-23T22:55:01.903Z,9.06
2018-09-23T22:57:30.794Z,9.08
2018-09-23T22:59:59.719Z,9.11
2018-09-23T23:02:28.586Z,9.11
2018-09-23T23:04:57.306Z,9.15
2018-09-23T23:07:26.179Z,9.14
2018-09-23T23:09:54.963Z,9.13
2018-09-23T23:12:27.611Z,9.09
2018-09-23T23:14:56.418Z,9.08
2018-09-23T23:17:25.255Z,9.07
2018-09-23T23:19:54.064Z,9.08
2018-09-23T23:22:40.824Z,9.08
2018-09-23T23:25:09.602Z,9.10
2018-09-23T23:27:38.361Z,9.05
2018-09-23T23:30:07.670Z,9.03
2018-09-23T23:32:36.497Z,8.97
2018-09-23T23:35:06.325Z,8.98
2018-09-23T23:37:35.079Z,8.92
2018-09-23T23:40:03.935Z,8.88
2018-09-23T23:42:32.773Z,8.82
2018-09-23T23:45:01.570Z,8.77
2018-09-23T23:47:30.370Z,8.74
2018-09-23T23:49:59.164Z,8.71
2018-09-23T23:52:28.014Z,8.66
2018-09-23T23:54:56.846Z,8.64
2018-09-23T23:57:25.602Z,8.64
2018-09-23T23:59:55.183Z,8.70
